createdAt,value
2023-03-22T00:00:30.865Z,13.73
2023-03-22T00:03:57.845Z,14.06
2023-03-22T00:07:03.475Z,13.26
2023-03-22T00:10:21.998Z,12.22
2023-03-22T00:13:29.841Z,12.24
2023-03-22T00:16:35.350Z,13.18
2023-03-22T00:20:01.106Z,13.75
2023-03-22T00:23:27.240Z,13.39
2023-03-22T00:26:41.519Z,12.34
2023-03-22T00:29:50.241Z,11.86
2023-03-22T00:32:58.344Z,12.68
2023-03-22T00:36:05.932Z,13.51
2023-03-22T00:39:31.632Z,14.16
2023-03-22T00:46:26.320Z,14.79
2023-03-22T00:49:50.657Z,14.01
2023-03-22T00:53:35.371Z,12.75
2023-03-22T00:56:45.683Z,12.02
2023-03-22T01:00:09.570Z,12.56
2023-03-22T01:03:35.277Z,13.63
2023-03-22T01:07:02.096Z,14.24
2023-03-22T01:10:33.269Z,14.40
2023-03-22T01:13:39.306Z,13.43
2023-03-22T01:16:57.768Z,12.39
2023-03-22T01:20:22.169Z,12.60
2023-03-22T01:23:45.169Z,13.41
2023-03-22T01:27:03.394Z,13.99
2023-03-22T01:30:10.566Z,13.82
2023-03-22T01:33:19.298Z,12.75
2023-03-22T01:36:43.491Z,12.18
2023-03-22T01:39:52.079Z,13.11
2023-03-22T01:43:05.462Z,13.88
2023-03-22T01:46:13.545Z,14.31
2023-03-22T01:49:27.360Z,14.62
2023-03-22T01:52:32.921Z,14.81
2023-03-22T01:55:43.751Z,14.09
2023-03-22T01:58:56.127Z,12.91
2023-03-22T02:02:08.469Z,12.05
2023-03-22T02:05:23.299Z,12.47
2023-03-22T02:08:29.359Z,13.39
2023-03-22T02:12:04.427Z,14.09
2023-03-22T02:15:17.554Z,14.51
2023-03-22T02:18:52.339Z,14.73
2023-03-22T02:22:32.102Z,14.70
2023-03-22T02:26:10.539Z,13.39
2023-03-22T02:29:22.097Z,12.24
2023-03-22T02:33:07.931Z,11.98
2023-03-22T02:36:26.955Z,13.01
2023-03-22T02:39:59.397Z,13.62
2023-03-22T02:43:14.383Z,13.94
2023-03-22T02:46:32.184Z,14.13
2023-03-22T02:50:03.486Z,14.38
2023-03-22T02:53:15.051Z,14.65
2023-03-22T02:56:41.351Z,14.82
2023-03-22T03:00:12.580Z,14.93
2023-03-22T03:07:01.913Z,13.47
2023-03-22T03:10:39.602Z,12.27
2023-03-22T03:13:49.528Z,11.57
2023-03-22T03:17:12.801Z,12.32
2023-03-22T03:20:24.336Z,13.13
2023-03-22T03:23:50.324Z,13.54
2023-03-22T03:27:00.399Z,13.87
2023-03-22T03:30:23.465Z,14.08
2023-03-22T03:33:54.493Z,14.27
2023-03-22T03:37:03.103Z,14.47
2023-03-22T03:40:29.127Z,14.64
2023-03-22T03:43:44.557Z,14.65
2023-03-22T03:46:54.075Z,14.71
2023-03-22T03:50:04.556Z,14.34
2023-03-22T03:53:50.282Z,13.06
2023-03-22T03:57:16.826Z,12.27
2023-03-22T04:00:58.945Z,13.09
2023-03-22T04:04:29.494Z,13.87
2023-03-22T04:07:58.463Z,14.24
2023-03-22T04:11:24.242Z,14.49
2023-03-22T04:14:49.935Z,14.82
2023-03-22T04:18:16.703Z,14.96
2023-03-22T04:21:43.736Z,15.15
2023-03-22T04:25:12.284Z,15.13
2023-03-22T04:28:56.710Z,15.22
2023-03-22T04:32:24.234Z,15.21
2023-03-22T04:35:50.514Z,15.20
2023-03-22T04:39:16.322Z,15.16
2023-03-22T04:42:42.063Z,15.15
2023-03-22T04:46:13.714Z,15.15
2023-03-22T04:49:42.314Z,15.21
2023-03-22T04:53:08.614Z,15.22
2023-03-22T04:56:34.378Z,15.34
2023-03-22T04:59:59.957Z,15.24
2023-03-22T05:03:26.154Z,15.37
2023-03-22T05:06:51.969Z,15.32
2023-03-22T05:10:20.612Z,15.31
2023-03-22T05:13:48.658Z,15.24
2023-03-22T05:17:14.389Z,15.37
2023-03-22T05:20:41.102Z,15.46
2023-03-22T05:24:10.580Z,15.55
2023-03-22T05:27:39.441Z,15.58
2023-03-22T05:31:08.437Z,15.67
2023-03-22T05:34:42.931Z,15.73
2023-03-22T05:38:15.017Z,15.78
2023-03-22T05:41:41.190Z,15.77
2023-03-22T05:45:08.138Z,15.80
2023-03-22T05:48:33.917Z,15.86
2023-03-22T05:52:00.159Z,15.78
2023-03-22T05:55:26.297Z,15.76
2023-03-22T05:58:52.469Z,15.69
2023-03-22T06:02:18.371Z,15.64
2023-03-22T06:05:44.083Z,15.69
2023-03-22T06:09:16.907Z,15.60
2023-03-22T06:12:43.276Z,15.47
2023-03-22T06:16:09.567Z,15.52
2023-03-22T06:19:35.558Z,15.61
2023-03-22T06:23:01.213Z,15.70
2023-03-22T06:26:27.278Z,15.75
2023-03-22T06:29:54.970Z,15.88
2023-03-22T06:33:20.612Z,15.95
2023-03-22T06:36:46.465Z,16.13
2023-03-22T06:40:13.546Z,16.29
2023-03-22T06:43:39.333Z,16.46
2023-03-22T06:47:05.054Z,16.46
2023-03-22T06:50:44.353Z,16.35
2023-03-22T06:54:14.821Z,16.49
2023-03-22T06:57:40.580Z,16.67
2023-03-22T07:01:06.642Z,16.81
2023-03-22T07:04:33.283Z,16.86
2023-03-22T07:07:59.800Z,16.88
2023-03-22T07:11:27.116Z,16.92
2023-03-22T07:14:55.062Z,16.92
2023-03-22T07:18:23.125Z,17.03
2023-03-22T07:21:48.799Z,17.26
2023-03-22T07:25:14.606Z,16.83
2023-03-22T07:28:44.234Z,15.63
2023-03-22T07:32:10.068Z,14.74
2023-03-22T07:35:37.139Z,15.57
2023-03-22T07:39:02.924Z,16.62
2023-03-22T07:42:28.840Z,17.24
2023-03-22T07:45:53.162Z,17.31
2023-03-22T07:49:32.464Z,17.35
2023-03-22T07:52:57.995Z,17.63
2023-03-22T07:56:23.966Z,18.08
2023-03-22T07:59:49.930Z,17.91
2023-03-22T08:03:37.714Z,16.74
2023-03-22T08:07:03.342Z,16.86
2023-03-22T08:10:29.107Z,17.43
2023-03-22T08:13:55.743Z,17.51
2023-03-22T08:17:21.793Z,17.56
2023-03-22T08:20:47.487Z,17.82
2023-03-22T08:24:14.166Z,18.09
2023-03-22T08:27:28.901Z,17.84
2023-03-22T08:30:54.999Z,16.64
2023-03-22T08:34:20.930Z,16.25
2023-03-22T08:37:46.599Z,17.30
2023-03-22T08:41:12.794Z,18.13
2023-03-22T08:44:59.891Z,18.54
2023-03-22T08:48:28.061Z,18.83
2023-03-22T08:52:17.520Z,17.57
2023-03-22T08:55:49.178Z,17.14
2023-03-22T08:59:23.990Z,17.97
2023-03-22T09:02:50.406Z,18.22
2023-03-22T09:06:16.470Z,17.15
2023-03-22T09:09:42.049Z,16.43
2023-03-22T09:13:07.827Z,17.18
2023-03-22T09:16:33.573Z,17.96
2023-03-22T09:20:11.951Z,18.44
2023-03-22T09:23:40.743Z,17.75
2023-03-22T09:27:06.967Z,16.59
2023-03-22T09:30:32.772Z,16.39
2023-03-22T09:33:58.621Z,17.28
2023-03-22T09:37:30.550Z,17.91
2023-03-22T09:41:01.795Z,17.39
2023-03-22T09:44:29.577Z,16.48
2023-03-22T09:47:56.698Z,16.87
2023-03-22T09:51:30.927Z,17.43
2023-03-22T09:54:56.627Z,16.73
2023-03-22T09:58:49.171Z,16.25
2023-03-22T10:02:24.768Z,17.19
2023-03-22T10:05:54.061Z,17.53
2023-03-22T10:09:22.709Z,16.85
2023-03-22T10:12:55.011Z,16.36
2023-03-22T10:16:26.990Z,16.27
2023-03-22T10:19:57.233Z,17.64
2023-03-22T10:23:28.020Z,18.44
2023-03-22T10:27:03.173Z,17.78
2023-03-22T10:30:32.639Z,17.39
2023-03-22T10:34:01.475Z,17.21
2023-03-22T10:37:32.158Z,17.12
2023-03-22T10:41:01.206Z,16.91
2023-03-22T10:44:28.011Z,16.72
2023-03-22T10:48:03.290Z,16.62
2023-03-22T10:51:32.307Z,16.49
2023-03-22T10:55:03.072Z,16.33
2023-03-22T10:58:33.679Z,16.85
2023-03-22T11:02:03.753Z,18.13
2023-03-22T11:05:30.685Z,18.00
2023-03-22T11:08:58.856Z,17.64
2023-03-22T11:12:26.743Z,17.36
2023-03-22T11:15:53.553Z,17.22
2023-03-22T11:19:23.465Z,17.18
2023-03-22T11:22:49.528Z,17.15
2023-03-22T11:26:15.822Z,17.15
2023-03-22T11:29:44.204Z,17.19
2023-03-22T11:33:19.274Z,17.31
2023-03-22T11:40:19.343Z,17.23
2023-03-22T11:43:49.920Z,17.30
2023-03-22T11:47:17.032Z,17.40
2023-03-22T11:50:44.358Z,17.55
2023-03-22T11:54:12.036Z,17.67
2023-03-22T11:57:38.177Z,17.81
2023-03-22T12:01:06.836Z,18.06
2023-03-22T12:04:35.684Z,18.27
2023-03-22T12:08:08.650Z,18.37
2023-03-22T12:11:37.214Z,18.45
2023-03-22T12:15:05.150Z,18.49
2023-03-22T12:18:33.558Z,18.59
2023-03-22T12:22:00.054Z,18.66
2023-03-22T12:25:28.291Z,18.54
2023-03-22T12:28:56.616Z,18.45
2023-03-22T12:32:25.445Z,18.37
2023-03-22T12:35:52.410Z,18.10
2023-03-22T12:39:22.109Z,18.06
2023-03-22T12:42:54.134Z,18.02
2023-03-22T12:46:25.277Z,17.96
2023-03-22T12:49:55.637Z,17.86
2023-03-22T12:53:43.339Z,17.78
2023-03-22T12:57:09.708Z,17.68
2023-03-22T13:00:39.752Z,17.61
2023-03-22T13:04:19.742Z,17.62
2023-03-22T13:07:53.135Z,17.65
2023-03-22T13:11:24.770Z,17.70
2023-03-22T13:14:57.804Z,17.88
2023-03-22T13:18:33.577Z,18.07
2023-03-22T13:22:19.854Z,18.28
2023-03-22T13:25:58.986Z,18.51
2023-03-22T13:29:26.097Z,18.58
2023-03-22T13:32:56.533Z,18.56
2023-03-22T13:36:25.368Z,18.59
2023-03-22T13:39:46.473Z,18.64
2023-03-22T13:43:13.905Z,18.70
2023-03-22T13:46:47.932Z,18.83
2023-03-22T13:50:17.091Z,19.00
2023-03-22T13:53:36.755Z,18.97
2023-03-22T13:57:02.369Z,18.89
2023-03-22T14:00:44.911Z,18.86
2023-03-22T14:04:12.904Z,18.87
2023-03-22T14:07:41.665Z,18.87
2023-03-22T14:11:15.704Z,18.88
2023-03-22T14:15:47.215Z,18.81
2023-03-22T14:18:34.401Z,18.68
